Time;durP1;ratioP1;P1;durP2;ratioP2;P2;SDS_P1;SDS_P2;PMS_P1;PMS_P2;Temp;Humidity;BMP_temperature;BMP_pressure;BME280_temperature;BME280_humidity;BME280_pressure;Samples;Min_cycle;Max_cycle;Signal;HPM_P1;HPM_P2
2022/07/23 00:00:59;;;;;;;6.28;4.25;;;;;;;;;;5062346;28;20036;-71
2022/07/23 00:03:25;;;;;;;8.52;4.50;;;;;;;;;;5062415;28;20048;-71
2022/07/23 00:05:51;;;;;;;7.75;4.88;;;;;;;;;;5073447;28;20036;-71
2022/07/23 00:08:17;;;;;;;12.45;5.20;;;;;;;;;;5068637;28;20081;-71
2022/07/23 00:10:43;;;;;;;5.47;4.20;;;;;;;;;;5083709;28;20036;-71
2022/07/23 00:13:09;;;;;;;6.78;4.40;;;;;;;;;;5078862;28;20382;-71
2022/07/23 00:15:35;;;;;;;7.60;4.35;;;;;;;;;;5089101;28;20173;-71
2022/07/23 00:18:01;;;;;;;7.00;4.55;;;;;;;;;;5085603;28;20515;-71
2022/07/23 00:20:27;;;;;;;6.53;4.32;;;;;;;;;;5073864;28;20439;-71
2022/07/23 00:22:55;;;;;;;11.93;4.60;;;;;;;;;;5074939;28;20051;-71
2022/07/23 00:25:22;;;;;;;10.70;4.25;;;;;;;;;;5089372;28;20127;-72
2022/07/23 00:27:48;;;;;;;6.80;4.53;;;;;;;;;;5083316;28;20039;-72
2022/07/23 00:30:14;;;;;;;8.38;4.82;;;;;;;;;;5062508;28;20064;-72
2022/07/23 00:32:48;;;;;;;10.57;4.97;;;;;;;;;;5074726;28;20127;-72
2022/07/23 00:35:14;;;;;;;7.88;4.55;;;;;;;;;;5045444;28;20516;-72
2022/07/23 00:37:40;;;;;;;7.40;4.32;;;;;;;;;;5105499;28;20040;-72
2022/07/23 00:40:06;;;;;;;8.57;4.47;;;;;;;;;;5075328;28;20036;-72
2022/07/23 00:42:33;;;;;;;7.63;4.38;;;;;;;;;;5060879;28;20040;-72
2022/07/23 00:44:59;;;;;;;5.57;4.00;;;;;;;;;;5074889;28;20446;-72
2022/07/23 00:47:25;;;;;;;8.63;4.40;;;;;;;;;;5074757;28;20044;-72
2022/07/23 00:49:52;;;;;;;5.78;3.90;;;;;;;;;;5075093;28;20500;-73
2022/07/23 00:52:18;;;;;;;6.93;4.68;;;;;;;;;;5074687;28;20084;-73
2022/07/23 00:54:44;;;;;;;8.55;4.50;;;;;;;;;;5074829;28;20044;-72
2022/07/23 00:57:10;;;;;;;10.15;4.88;;;;;;;;;;5082411;28;20036;-73
2022/07/23 00:59:36;;;;;;;7.55;4.65;;;;;;;;;;5079609;28;20035;-73
2022/07/23 01:02:02;;;;;;;9.05;4.80;;;;;;;;;;5081265;28;20075;-73
2022/07/23 01:04:28;;;;;;;8.40;4.60;;;;;;;;;;5063860;28;20506;-73
2022/07/23 01:06:54;;;;;;;6.93;4.10;;;;;;;;;;5076857;28;20040;-73
2022/07/23 01:09:20;;;;;;;9.13;5.30;;;;;;;;;;5081064;28;20512;-73
2022/07/23 01:11:46;;;;;;;7.00;4.68;;;;;;;;;;5062445;28;20044;-73
2022/07/23 01:14:13;;;;;;;10.00;5.22;;;;;;;;;;5075032;28;20032;-73
2022/07/23 01:16:40;;;;;;;7.28;4.75;;;;;;;;;;5061393;28;20093;-73
2022/07/23 01:19:06;;;;;;;8.30;4.85;;;;;;;;;;5066382;28;20057;-73
2022/07/23 01:21:34;;;;;;;7.13;5.00;;;;;;;;;;5074515;28;20044;-73
2022/07/23 01:24:00;;;;;;;7.20;4.50;;;;;;;;;;5101329;28;20032;-72
2022/07/23 01:26:26;;;;;;;10.38;5.38;;;;;;;;;;5080694;28;20051;-73
2022/07/23 01:28:52;;;;;;;9.93;5.88;;;;;;;;;;5070473;28;20439;-73
2022/07/23 01:31:19;;;;;;;8.15;5.30;;;;;;;;;;5052042;28;20083;-73
2022/07/23 01:33:45;;;;;;;9.27;5.50;;;;;;;;;;5073145;28;20071;-73
2022/07/23 01:36:11;;;;;;;9.20;5.80;;;;;;;;;;5074348;28;20068;-73
2022/07/23 01:38:37;;;;;;;9.60;6.15;;;;;;;;;;5074440;28;20028;-73
2022/07/23 01:41:03;;;;;;;10.10;6.15;;;;;;;;;;5074261;28;20040;-73
2022/07/23 01:43:30;;;;;;;8.43;5.50;;;;;;;;;;5092045;28;20454;-72
2022/07/23 01:45:56;;;;;;;13.02;5.68;;;;;;;;;;5061313;28;20040;-73
2022/07/23 01:48:22;;;;;;;7.53;4.85;;;;;;;;;;5071347;28;20495;-73
2022/07/23 01:50:48;;;;;;;7.70;5.05;;;;;;;;;;5094280;28;20105;-73
2022/07/23 01:53:15;;;;;;;9.80;5.82;;;;;;;;;;5057948;28;20043;-73
2022/07/23 01:55:42;;;;;;;8.82;5.40;;;;;;;;;;5073900;28;20131;-73
2022/07/23 01:58:08;;;;;;;8.23;4.93;;;;;;;;;;5064569;28;20044;-73
2022/07/23 02:00:35;;;;;;;9.07;5.03;;;;;;;;;;5067893;28;20036;-73
2022/07/23 02:03:01;;;;;;;8.63;5.10;;;;;;;;;;5062417;28;20046;-73
2022/07/23 02:05:28;;;;;;;9.75;5.47;;;;;;;;;;5083822;28;20090;-73
2022/07/23 02:07:55;;;;;;;8.32;5.28;;;;;;;;;;5074699;28;20074;-73
2022/07/23 02:10:21;;;;;;;7.32;4.40;;;;;;;;;;5072600;28;20047;-73
2022/07/23 02:12:47;;;;;;;6.88;4.20;;;;;;;;;;5067581;28;20395;-73
2022/07/23 02:15:13;;;;;;;6.30;4.13;;;;;;;;;;5091153;28;20119;-72
2022/07/23 02:17:40;;;;;;;7.28;4.88;;;;;;;;;;5096222;28;20048;-72
2022/07/23 02:20:07;;;;;;;8.82;4.65;;;;;;;;;;5072418;28;20052;-72
2022/07/23 02:22:33;;;;;;;8.48;4.75;;;;;;;;;;5068772;28;20044;-73
2022/07/23 02:24:59;;;;;;;8.35;5.13;;;;;;;;;;5078785;28;20044;-72
2022/07/23 02:27:25;;;;;;;5.97;3.83;;;;;;;;;;5075019;28;20048;-72
2022/07/23 02:29:52;;;;;;;8.32;4.43;;;;;;;;;;5058875;28;20514;-73
2022/07/23 02:32:18;;;;;;;7.75;4.82;;;;;;;;;;5102403;28;20066;-73
2022/07/23 02:34:44;;;;;;;6.05;3.63;;;;;;;;;;5098299;28;20043;-72
2022/07/23 02:37:10;;;;;;;8.65;4.72;;;;;;;;;;5075081;28;20050;-73
2022/07/23 02:39:36;;;;;;;7.95;4.47;;;;;;;;;;5066636;28;20039;-73
2022/07/23 02:42:02;;;;;;;8.43;5.68;;;;;;;;;;5060592;28;20063;-73
2022/07/23 02:44:28;;;;;;;8.93;4.70;;;;;;;;;;5086880;28;20039;-72
2022/07/23 02:46:54;;;;;;;8.48;5.43;;;;;;;;;;5079465;28;20078;-72
2022/07/23 02:49:20;;;;;;;7.22;4.88;;;;;;;;;;5053926;28;20124;-72
2022/07/23 02:51:46;;;;;;;10.27;5.28;;;;;;;;;;5077075;28;20557;-72
2022/07/23 02:54:13;;;;;;;6.68;4.95;;;;;;;;;;5076703;28;20036;-72
2022/07/23 02:56:39;;;;;;;7.63;4.60;;;;;;;;;;5060127;28;20381;-72
2022/07/23 02:59:05;;;;;;;10.82;5.22;;;;;;;;;;5078475;28;20435;-72
2022/07/23 03:01:31;;;;;;;8.95;5.63;;;;;;;;;;5104837;28;20046;-72
2022/07/23 03:03:57;;;;;;;6.75;4.55;;;;;;;;;;5068877;28;20497;-72
2022/07/23 03:06:23;;;;;;;7.10;4.97;;;;;;;;;;5089551;28;20189;-72
2022/07/23 03:08:49;;;;;;;9.10;5.40;;;;;;;;;;5060344;28;20119;-72
2022/07/23 03:11:15;;;;;;;7.90;5.28;;;;;;;;;;5086089;28;20043;-73
2022/07/23 03:13:41;;;;;;;10.20;5.38;;;;;;;;;;5076622;28;20552;-73
2022/07/23 03:16:08;;;;;;;11.50;5.47;;;;;;;;;;5094590;28;20063;-73
2022/07/23 03:18:34;;;;;;;8.32;4.88;;;;;;;;;;5073176;28;20124;-72
2022/07/23 03:21:00;;;;;;;11.10;5.40;;;;;;;;;;5084965;28;20101;-72
2022/07/23 03:23:26;;;;;;;8.00;5.22;;;;;;;;;;5084770;28;20485;-72
2022/07/23 03:25:52;;;;;;;6.68;4.13;;;;;;;;;;5059902;28;20063;-72
2022/07/23 03:28:19;;;;;;;7.05;4.50;;;;;;;;;;5062862;28;20043;-72
2022/07/23 03:30:48;;;;;;;7.78;4.60;;;;;;;;;;5068075;28;20040;-72
2022/07/23 03:33:16;;;;;;;10.15;5.20;;;;;;;;;;5074212;28;20045;-72
2022/07/23 03:35:42;;;;;;;6.75;4.53;;;;;;;;;;5088058;28;20032;-73
2022/07/23 03:38:08;;;;;;;5.63;4.28;;;;;;;;;;5076066;28;20119;-71
2022/07/23 03:40:34;;;;;;;6.65;4.20;;;;;;;;;;5113959;28;20054;-71
2022/07/23 03:43:01;;;;;;;6.10;3.78;;;;;;;;;;5084691;28;20036;-70
2022/07/23 03:45:27;;;;;;;7.22;4.70;;;;;;;;;;5075579;28;20093;-71
2022/07/23 03:47:53;;;;;;;7.75;5.38;;;;;;;;;;5075671;28;20488;-71
2022/07/23 03:50:19;;;;;;;8.43;4.70;;;;;;;;;;5059711;28;20075;-71
2022/07/23 03:52:45;;;;;;;8.82;5.22;;;;;;;;;;5088384;28;20539;-70
2022/07/23 03:55:11;;;;;;;6.95;4.88;;;;;;;;;;5062007;28;20037;-71
2022/07/23 03:57:38;;;;;;;10.57;4.65;;;;;;;;;;5074987;28;20036;-71
2022/07/23 04:00:05;;;;;;;8.77;4.85;;;;;;;;;;5058253;28;20036;-70
2022/07/23 04:02:31;;;;;;;7.38;4.93;;;;;;;;;;5070931;28;20063;-71
2022/07/23 04:04:58;;;;;;;9.90;4.53;;;;;;;;;;5081217;28;20441;-71
2022/07/23 04:07:24;;;;;;;7.47;4.60;;;;;;;;;;5071096;28;20041;-71
2022/07/23 04:09:50;;;;;;;5.47;3.97;;;;;;;;;;5060285;28;20043;-71
2022/07/23 04:12:16;;;;;;;6.30;3.50;;;;;;;;;;5080426;28;20036;-72
2022/07/23 04:14:42;;;;;;;4.70;3.60;;;;;;;;;;5067540;28;20042;-71
2022/07/23 04:17:08;;;;;;;7.10;3.47;;;;;;;;;;5065417;28;20036;-71
2022/07/23 04:19:39;;;;;;;3.72;2.75;;;;;;;;;;5065738;28;20124;-71
2022/07/23 04:22:05;;;;;;;4.10;3.13;;;;;;;;;;5075088;28;20606;-71
2022/07/23 04:24:31;;;;;;;7.10;3.40;;;;;;;;;;5058287;28;20048;-71
2022/07/23 04:26:57;;;;;;;6.20;3.55;;;;;;;;;;5076495;28;20036;-71
2022/07/23 04:29:24;;;;;;;7.20;3.13;;;;;;;;;;5083849;28;20036;-71
2022/07/23 04:31:50;;;;;;;4.05;2.53;;;;;;;;;;5092717;28;20123;-71
2022/07/23 04:34:16;;;;;;;8.48;3.20;;;;;;;;;;5074500;28;20032;-71
2022/07/23 04:36:42;;;;;;;4.72;3.22;;;;;;;;;;5058240;28;20484;-71
2022/07/23 04:39:08;;;;;;;4.93;3.03;;;;;;;;;;5057306;28;20105;-71
2022/07/23 04:41:34;;;;;;;4.78;3.05;;;;;;;;;;5074162;28;20078;-72
2022/07/23 04:44:01;;;;;;;4.78;3.30;;;;;;;;;;5074613;28;20036;-71
2022/07/23 04:46:27;;;;;;;4.53;2.70;;;;;;;;;;5074780;28;20044;-71
2022/07/23 04:48:53;;;;;;;5.22;3.05;;;;;;;;;;5074716;28;20055;-71
2022/07/23 04:51:19;;;;;;;5.00;2.55;;;;;;;;;;5057052;28;20097;-72
2022/07/23 04:53:46;;;;;;;4.00;2.70;;;;;;;;;;5074472;28;20044;-72
2022/07/23 04:56:12;;;;;;;4.85;3.20;;;;;;;;;;5075018;28;20032;-72
2022/07/23 04:58:38;;;;;;;5.72;3.30;;;;;;;;;;5057929;28;20053;-71
2022/07/23 05:01:04;;;;;;;4.00;2.92;;;;;;;;;;5092933;28;20036;-71
2022/07/23 05:03:30;;;;;;;3.95;2.50;;;;;;;;;;5073522;28;20040;-71
2022/07/23 05:05:56;;;;;;;4.30;2.72;;;;;;;;;;5074352;28;20105;-72
2022/07/23 05:08:23;;;;;;;3.67;2.65;;;;;;;;;;5073941;28;20036;-71
2022/07/23 05:10:49;;;;;;;4.15;2.40;;;;;;;;;;5074345;28;20084;-72
2022/07/23 05:13:16;;;;;;;2.75;1.98;;;;;;;;;;5073711;28;20040;-71
2022/07/23 05:15:42;;;;;;;4.32;2.30;;;;;;;;;;5074424;28;20028;-71
2022/07/23 05:18:08;;;;;;;3.92;2.25;;;;;;;;;;5068764;28;20115;-71
2022/07/23 05:20:34;;;;;;;3.85;2.30;;;;;;;;;;5036400;28;20057;-71
2022/07/23 05:23:00;;;;;;;5.85;2.35;;;;;;;;;;5067997;28;20489;-72
2022/07/23 05:25:27;;;;;;;3.92;2.30;;;;;;;;;;5073755;28;20453;-72
2022/07/23 05:27:53;;;;;;;3.40;2.15;;;;;;;;;;5095010;28;20074;-72
2022/07/23 05:30:19;;;;;;;3.47;2.00;;;;;;;;;;5072885;28;20048;-72
2022/07/23 05:32:45;;;;;;;4.45;1.70;;;;;;;;;;5073340;28;20485;-72
2022/07/23 05:35:11;;;;;;;3.88;1.90;;;;;;;;;;5072825;28;20120;-72
2022/07/23 05:37:37;;;;;;;3.53;1.88;;;;;;;;;;5073075;28;20066;-72
2022/07/23 05:40:07;;;;;;;3.15;1.80;;;;;;;;;;5039224;28;20071;-72
2022/07/23 05:42:34;;;;;;;3.15;1.90;;;;;;;;;;5073063;28;20538;-73
2022/07/23 05:45:00;;;;;;;4.82;1.98;;;;;;;;;;5091144;28;20043;-73
2022/07/23 05:47:26;;;;;;;3.28;1.73;;;;;;;;;;5072738;28;20051;-73
2022/07/23 05:49:53;;;;;;;2.80;1.80;;;;;;;;;;5058011;28;20044;-73
2022/07/23 05:52:19;;;;;;;4.25;1.80;;;;;;;;;;5075868;28;20475;-73
2022/07/23 05:54:45;;;;;;;3.28;1.85;;;;;;;;;;5086248;28;20041;-73
2022/07/23 05:57:11;;;;;;;4.38;2.30;;;;;;;;;;5096699;28;20036;-75
2022/07/23 05:59:37;;;;;;;3.25;2.22;;;;;;;;;;5080063;28;20044;-74
2022/07/23 06:02:03;;;;;;;4.60;2.13;;;;;;;;;;5073574;28;20039;-74
2022/07/23 06:04:29;;;;;;;3.88;2.15;;;;;;;;;;5061084;28;20073;-74
2022/07/23 06:06:55;;;;;;;4.70;2.42;;;;;;;;;;5088758;28;20445;-75
2022/07/23 06:09:21;;;;;;;5.10;2.47;;;;;;;;;;5096495;28;20039;-75
2022/07/23 06:11:47;;;;;;;3.50;2.05;;;;;;;;;;5085248;28;20062;-75
2022/07/23 06:14:13;;;;;;;3.65;2.10;;;;;;;;;;5052939;28;20109;-74
2022/07/23 06:16:40;;;;;;;2.97;1.77;;;;;;;;;;5083936;28;20106;-75
2022/07/23 06:19:06;;;;;;;3.50;1.83;;;;;;;;;;5044792;28;1137045;-75
2022/07/23 06:21:32;;;;;;;5.13;2.00;;;;;;;;;;5076672;28;20062;-75
2022/07/23 06:23:58;;;;;;;5.28;2.30;;;;;;;;;;5077283;28;20124;-75
2022/07/23 06:26:24;;;;;;;5.95;2.45;;;;;;;;;;5077333;28;20087;-75
2022/07/23 06:28:50;;;;;;;3.03;1.90;;;;;;;;;;5079244;28;20039;-75
2022/07/23 06:31:16;;;;;;;4.45;1.50;;;;;;;;;;5077286;28;20123;-75
2022/07/23 06:33:42;;;;;;;4.10;1.85;;;;;;;;;;5075475;28;20036;-74
2022/07/23 06:36:08;;;;;;;5.80;1.67;;;;;;;;;;5074026;28;20037;-75
2022/07/23 06:38:35;;;;;;;4.15;1.20;;;;;;;;;;5075689;28;20040;-74
2022/07/23 06:41:01;;;;;;;2.10;1.10;;;;;;;;;;5083773;28;20047;-75
2022/07/23 06:43:27;;;;;;;3.55;1.50;;;;;;;;;;5083978;28;20049;-75
2022/07/23 06:45:53;;;;;;;4.00;1.17;;;;;;;;;;5082018;28;20038;-75
2022/07/23 06:48:19;;;;;;;4.90;1.30;;;;;;;;;;5075320;28;20048;-75
2022/07/23 06:50:45;;;;;;;3.40;1.20;;;;;;;;;;5065985;28;20600;-75
2022/07/23 06:53:11;;;;;;;2.22;0.90;;;;;;;;;;5079003;28;20428;-75
2022/07/23 06:55:38;;;;;;;3.65;1.00;;;;;;;;;;5088729;28;20168;-75
2022/07/23 06:58:05;;;;;;;1.80;0.90;;;;;;;;;;5089530;28;20059;-75
2022/07/23 07:00:32;;;;;;;1.60;0.73;;;;;;;;;;5074924;28;20043;-75
2022/07/23 07:02:58;;;;;;;2.75;0.90;;;;;;;;;;5103515;28;20036;-76
2022/07/23 07:05:27;;;;;;;3.92;1.10;;;;;;;;;;5074260;28;20043;-75
2022/07/23 07:07:53;;;;;;;1.83;0.80;;;;;;;;;;5071328;28;20096;-75
2022/07/23 07:10:19;;;;;;;3.42;1.00;;;;;;;;;;5094340;28;20573;-74
2022/07/23 07:12:45;;;;;;;3.55;1.23;;;;;;;;;;5088427;28;20046;-75
2022/07/23 07:15:11;;;;;;;2.95;0.80;;;;;;;;;;5097657;28;20036;-75
2022/07/23 07:17:38;;;;;;;2.72;0.80;;;;;;;;;;5085918;28;20116;-75
2022/07/23 07:20:04;;;;;;;2.63;0.70;;;;;;;;;;5074519;28;20047;-75
2022/07/23 07:22:30;;;;;;;1.88;0.70;;;;;;;;;;5063402;28;20048;-74
2022/07/23 07:24:56;;;;;;;2.85;1.08;;;;;;;;;;5072814;28;20089;-75
2022/07/23 07:27:22;;;;;;;2.70;0.98;;;;;;;;;;5080650;28;20039;-75
2022/07/23 07:29:48;;;;;;;1.42;0.75;;;;;;;;;;5081270;28;20093;-75
2022/07/23 07:32:15;;;;;;;3.47;0.80;;;;;;;;;;5076090;28;20119;-74
2022/07/23 07:34:41;;;;;;;2.63;0.70;;;;;;;;;;5075795;28;20032;-74
2022/07/23 07:37:07;;;;;;;4.65;1.00;;;;;;;;;;5058616;28;20039;-74
2022/07/23 07:39:33;;;;;;;1.98;0.73;;;;;;;;;;5075989;28;20040;-75
2022/07/23 07:41:59;;;;;;;1.50;0.60;;;;;;;;;;5075628;28;20539;-74
2022/07/23 07:44:25;;;;;;;1.70;0.60;;;;;;;;;;5059415;28;20049;-74
2022/07/23 07:46:52;;;;;;;2.45;0.80;;;;;;;;;;5074561;28;20047;-75
2022/07/23 07:49:19;;;;;;;1.45;0.60;;;;;;;;;;5076270;28;20044;-74
2022/07/23 07:51:45;;;;;;;1.65;0.55;;;;;;;;;;5075272;28;20508;-75
2022/07/23 07:54:12;;;;;;;1.42;0.60;;;;;;;;;;5080749;28;20045;-75
2022/07/23 07:56:38;;;;;;;1.13;0.40;;;;;;;;;;5084054;28;20032;-75
2022/07/23 07:59:04;;;;;;;1.95;0.60;;;;;;;;;;5074014;28;20059;-75
2022/07/23 08:01:30;;;;;;;1.42;0.70;;;;;;;;;;5059828;28;20078;-75
2022/07/23 08:03:56;;;;;;;1.05;0.50;;;;;;;;;;5068384;28;20512;-76
2022/07/23 08:06:22;;;;;;;1.70;0.70;;;;;;;;;;5063769;28;20071;-75
2022/07/23 08:08:48;;;;;;;1.98;0.50;;;;;;;;;;5085819;28;20043;-75
2022/07/23 08:11:14;;;;;;;2.10;0.52;;;;;;;;;;5080947;28;20075;-75
2022/07/23 08:13:41;;;;;;;1.63;0.60;;;;;;;;;;5068724;28;20032;-75
2022/07/23 08:16:07;;;;;;;1.50;0.50;;;;;;;;;;5066973;28;20058;-76
2022/07/23 08:18:33;;;;;;;1.60;0.60;;;;;;;;;;5075709;28;20063;-75
2022/07/23 08:20:59;;;;;;;1.50;0.70;;;;;;;;;;5076099;28;20048;-76
2022/07/23 08:23:27;;;;;;;2.25;0.60;;;;;;;;;;5075855;28;20044;-76
2022/07/23 08:25:53;;;;;;;1.90;0.50;;;;;;;;;;5075276;28;20055;-75
2022/07/23 08:28:19;;;;;;;3.25;0.68;;;;;;;;;;5086149;28;20077;-75
2022/07/23 08:30:46;;;;;;;0.93;0.50;;;;;;;;;;5074237;28;20094;-74
2022/07/23 08:33:13;;;;;;;2.20;0.60;;;;;;;;;;5094058;28;20031;-74
2022/07/23 08:35:41;;;;;;;1.55;0.50;;;;;;;;;;5075286;28;20642;-75
2022/07/23 08:38:08;;;;;;;1.52;0.60;;;;;;;;;;5075208;28;20040;-75
2022/07/23 08:40:36;;;;;;;1.85;0.63;;;;;;;;;;5073897;28;20036;-76
2022/07/23 08:43:05;;;;;;;1.20;0.50;;;;;;;;;;5074530;28;20051;-74
2022/07/23 08:45:31;;;;;;;1.30;0.60;;;;;;;;;;5074802;28;20109;-74
2022/07/23 08:47:58;;;;;;;1.40;0.75;;;;;;;;;;5074638;28;20404;-75
2022/07/23 08:50:25;;;;;;;2.25;0.65;;;;;;;;;;5074123;28;20044;-75
2022/07/23 08:52:52;;;;;;;1.23;0.60;;;;;;;;;;5057502;28;20036;-73
2022/07/23 08:55:19;;;;;;;2.45;0.85;;;;;;;;;;5074542;28;20040;-75
2022/07/23 08:57:49;;;;;;;1.75;0.70;;;;;;;;;;5074233;28;20035;-75
2022/07/23 09:00:16;;;;;;;2.00;0.60;;;;;;;;;;5074291;28;20085;-74
2022/07/23 09:02:43;;;;;;;2.55;0.60;;;;;;;;;;5073797;28;20048;-74
2022/07/23 09:05:13;;;;;;;2.13;0.68;;;;;;;;;;5074244;28;20048;-74
2022/07/23 09:07:58;;;;;;;2.25;0.80;;;;;;;;;;5092575;28;20035;-72
2022/07/23 09:10:24;;;;;;;4.10;0.90;;;;;;;;;;5074377;28;20089;-74
2022/07/23 09:12:50;;;;;;;2.72;0.80;;;;;;;;;;5073281;28;20040;-74
2022/07/23 09:15:16;;;;;;;24.42;4.35;;;;;;;;;;5092642;28;20044;-73
2022/07/23 09:17:43;;;;;;;2.08;0.82;;;;;;;;;;5074228;28;20036;-72
2022/07/23 09:20:13;;;;;;;3.85;0.90;;;;;;;;;;5057023;28;20059;-74
2022/07/23 09:22:40;;;;;;;1.63;0.77;;;;;;;;;;5057146;28;20516;-74
2022/07/23 09:25:14;;;;;;;2.33;0.70;;;;;;;;;;5073771;28;20035;-74
2022/07/23 09:27:46;;;;;;;2.20;0.82;;;;;;;;;;5081769;28;20507;-75
2022/07/23 09:30:12;;;;;;;2.85;1.05;;;;;;;;;;5076087;28;20039;-72
2022/07/23 09:32:40;;;;;;;3.38;0.80;;;;;;;;;;5073032;28;20127;-74
2022/07/23 09:35:06;;;;;;;2.05;1.00;;;;;;;;;;5073423;28;20518;-74
2022/07/23 09:37:32;;;;;;;3.00;1.00;;;;;;;;;;5057190;28;20063;-74
2022/07/23 09:40:11;;;;;;;2.10;1.05;;;;;;;;;;5073068;28;20040;-73
2022/07/23 09:42:37;;;;;;;1.65;0.90;;;;;;;;;;5071870;28;20564;-73
2022/07/23 09:45:04;;;;;;;3.00;0.90;;;;;;;;;;5073279;28;20040;-73
2022/07/23 09:47:31;;;;;;;1.63;0.80;;;;;;;;;;5073931;28;20044;-74
2022/07/23 09:50:13;;;;;;;2.30;0.90;;;;;;;;;;5072887;28;20046;-74
2022/07/23 09:52:49;;;;;;;1.55;0.80;;;;;;;;;;5072678;28;20051;-73
2022/07/23 09:55:19;;;;;;;2.17;1.05;;;;;;;;;;5072992;28;20043;-74
2022/07/23 09:57:50;;;;;;;2.20;0.90;;;;;;;;;;5073086;28;20032;-72
2022/07/23 10:00:16;;;;;;;2.00;0.80;;;;;;;;;;5067013;28;20071;-73
2022/07/23 10:02:42;;;;;;;1.15;0.75;;;;;;;;;;5058800;28;20040;-73
2022/07/23 10:05:08;;;;;;;1.67;1.00;;;;;;;;;;5077358;28;20047;-74
2022/07/23 10:07:36;;;;;;;1.85;1.00;;;;;;;;;;5081676;28;20432;-73
2022/07/23 10:10:04;;;;;;;1.70;0.80;;;;;;;;;;5090870;28;20082;-72
2022/07/23 10:15:08;;;;;;;1.98;1.00;;;;;;;;;;5078915;28;20072;-72
2022/07/23 10:17:35;;;;;;;2.13;0.90;;;;;;;;;;5100865;28;20072;-73
2022/07/23 10:20:01;;;;;;;4.47;1.48;;;;;;;;;;5078092;28;20124;-73
2022/07/23 10:22:32;;;;;;;2.33;1.25;;;;;;;;;;5078675;28;20082;-72
2022/07/23 10:25:04;;;;;;;1.63;0.82;;;;;;;;;;5103791;28;20040;-72
2022/07/23 10:27:42;;;;;;;2.42;0.98;;;;;;;;;;5079342;28;20070;-73
2022/07/23 10:30:31;;;;;;;2.53;1.10;;;;;;;;;;5076028;28;20040;-73
2022/07/23 10:33:06;;;;;;;2.22;1.00;;;;;;;;;;5073061;28;20054;-73
2022/07/23 10:35:45;;;;;;;5.82;1.17;;;;;;;;;;5073837;28;20044;-72
2022/07/23 10:38:11;;;;;;;2.53;1.10;;;;;;;;;;5095182;28;20043;-73
2022/07/23 10:40:37;;;;;;;2.80;1.08;;;;;;;;;;5077297;28;20031;-72
2022/07/23 10:43:13;;;;;;;2.05;0.98;;;;;;;;;;5059377;28;20051;-72
2022/07/23 10:45:39;;;;;;;2.67;0.90;;;;;;;;;;5076988;28;20040;-74
2022/07/23 10:48:13;;;;;;;2.00;0.90;;;;;;;;;;5076547;28;20047;-73
2022/07/23 10:50:40;;;;;;;2.47;0.98;;;;;;;;;;5075925;28;20043;-74
2022/07/23 10:53:06;;;;;;;4.13;1.10;;;;;;;;;;5059592;28;20048;-73
2022/07/23 10:55:32;;;;;;;2.15;1.00;;;;;;;;;;5078596;28;20044;-74
2022/07/23 10:57:58;;;;;;;2.50;1.10;;;;;;;;;;5088339;28;20074;-72
2022/07/23 11:00:25;;;;;;;2.22;1.10;;;;;;;;;;5059052;28;20040;-74
2022/07/23 11:02:53;;;;;;;2.22;1.10;;;;;;;;;;5075451;28;20067;-75
2022/07/23 11:05:20;;;;;;;2.40;1.10;;;;;;;;;;5059315;28;20050;-74
2022/07/23 11:08:05;;;;;;;2.00;0.90;;;;;;;;;;5075096;28;20032;-74
2022/07/23 11:10:37;;;;;;;3.53;1.20;;;;;;;;;;5076535;28;20519;-75
2022/07/23 11:13:22;;;;;;;2.55;1.00;;;;;;;;;;5076416;28;20063;-73
2022/07/23 11:16:04;;;;;;;1.95;1.00;;;;;;;;;;5071383;28;20071;-74
2022/07/23 11:18:42;;;;;;;2.88;1.55;;;;;;;;;;5075051;28;20048;-73
2022/07/23 11:21:26;;;;;;;3.28;1.30;;;;;;;;;;5072668;28;20051;-73
2022/07/23 11:24:13;;;;;;;1.95;1.20;;;;;;;;;;5057087;28;20072;-73
2022/07/23 11:26:42;;;;;;;2.28;1.10;;;;;;;;;;5088979;28;20180;-72
2022/07/23 11:29:27;;;;;;;1.80;1.10;;;;;;;;;;5083411;28;20032;-73
2022/07/23 11:31:53;;;;;;;;;;;;;;;;;;5058571;28;20123;-75
2022/07/23 11:34:28;;;;;;;3.90;1.20;;;;;;;;;;5071898;28;20007;-73
2022/07/23 11:36:55;;;;;;;2.80;1.15;;;;;;;;;;5072744;28;20103;-73
2022/07/23 11:39:21;;;;;;;2.53;1.10;;;;;;;;;;5074792;28;20032;-74
2022/07/23 11:41:47;;;;;;;3.05;1.40;;;;;;;;;;5074717;28;20502;-73
2022/07/23 11:44:26;;;;;;;4.88;1.58;;;;;;;;;;5050943;28;20036;-73
2022/07/23 11:46:56;;;;;;;3.25;1.10;;;;;;;;;;5074283;28;20051;-72
2022/07/23 11:49:22;;;;;;;1.95;1.00;;;;;;;;;;5077790;28;20044;-73
2022/07/23 11:52:03;;;;;;;2.35;1.30;;;;;;;;;;5084753;28;20055;-73
2022/07/23 11:54:29;;;;;;;3.05;1.30;;;;;;;;;;5064754;28;20037;-73
2022/07/23 11:56:56;;;;;;;2.75;1.40;;;;;;;;;;5066508;28;20040;-72
2022/07/23 11:59:23;;;;;;;2.65;1.50;;;;;;;;;;5061582;28;20050;-72
2022/07/23 12:01:59;;;;;;;2.88;1.40;;;;;;;;;;5075945;28;20386;-73
2022/07/23 12:04:26;;;;;;;2.50;1.20;;;;;;;;;;5079423;28;20046;-73
2022/07/23 12:06:52;;;;;;;1.73;1.10;;;;;;;;;;5075263;28;20581;-73
2022/07/23 12:09:18;;;;;;;3.33;1.40;;;;;;;;;;5078271;28;20490;-73
2022/07/23 12:11:57;;;;;;;1.80;1.23;;;;;;;;;;5045550;28;20053;-73
2022/07/23 12:14:23;;;;;;;2.22;1.35;;;;;;;;;;5068011;28;20035;-73
2022/07/23 12:17:07;;;;;;;2.88;1.20;;;;;;;;;;5078937;28;20511;-72
2022/07/23 12:19:33;;;;;;;2.83;1.25;;;;;;;;;;5092499;28;20485;-72
2022/07/23 12:21:59;;;;;;;3.55;1.30;;;;;;;;;;5074716;28;20083;-74
2022/07/23 12:24:25;;;;;;;2.30;1.30;;;;;;;;;;5074709;28;20040;-74
2022/07/23 12:27:11;;;;;;;2.72;1.13;;;;;;;;;;5075440;28;20123;-74
2022/07/23 12:29:37;;;;;;;2.20;1.40;;;;;;;;;;5080998;28;20477;-74
2022/07/23 12:32:16;;;;;;;2.70;1.20;;;;;;;;;;5074298;28;20476;-72
2022/07/23 12:34:43;;;;;;;2.35;1.20;;;;;;;;;;5074461;28;20086;-73
2022/07/23 12:37:24;;;;;;;2.40;1.33;;;;;;;;;;5074313;28;20071;-74
2022/07/23 12:39:50;;;;;;;2.20;1.25;;;;;;;;;;5074580;28;20040;-73
2022/07/23 12:42:17;;;;;;;3.88;1.75;;;;;;;;;;5037950;28;20047;-73
2022/07/23 12:45:03;;;;;;;2.50;1.40;;;;;;;;;;5073567;28;20389;-74
2022/07/23 12:47:29;;;;;;;3.05;1.52;;;;;;;;;;5056573;28;20047;-73
2022/07/23 12:49:55;;;;;;;3.08;1.73;;;;;;;;;;5091989;28;20044;-74
2022/07/23 12:52:21;;;;;;;2.10;1.20;;;;;;;;;;5057492;28;20105;-74
2022/07/23 12:54:48;;;;;;;2.67;1.38;;;;;;;;;;5079303;28;20039;-73
2022/07/23 12:57:14;;;;;;;2.95;1.45;;;;;;;;;;5074043;28;20085;-73
2022/07/23 12:59:40;;;;;;;2.45;1.27;;;;;;;;;;5074263;28;20036;-72
2022/07/23 13:02:09;;;;;;;2.67;1.30;;;;;;;;;;5074235;28;20097;-73
2022/07/23 13:04:35;;;;;;;3.63;1.30;;;;;;;;;;5091407;28;20040;-72
2022/07/23 13:07:01;;;;;;;2.65;1.15;;;;;;;;;;5092938;28;20043;-73
2022/07/23 13:09:31;;;;;;;2.17;1.20;;;;;;;;;;5074133;28;20561;-72
2022/07/23 13:11:58;;;;;;;1.95;1.30;;;;;;;;;;5073317;28;20048;-74
2022/07/23 13:14:25;;;;;;;2.40;1.40;;;;;;;;;;5073060;28;20115;-74
2022/07/23 13:16:52;;;;;;;3.45;1.20;;;;;;;;;;5042334;28;20455;-73
2022/07/23 13:19:19;;;;;;;2.60;1.40;;;;;;;;;;5064688;28;20090;-73
2022/07/23 13:21:45;;;;;;;2.83;1.27;;;;;;;;;;5060875;28;20457;-74
2022/07/23 13:24:12;;;;;;;4.43;1.40;;;;;;;;;;5074829;28;20040;-73
2022/07/23 13:26:38;;;;;;;3.13;1.40;;;;;;;;;;5086842;28;20048;-73
2022/07/23 13:29:05;;;;;;;2.35;1.20;;;;;;;;;;5083955;28;20115;-73
2022/07/23 13:31:31;;;;;;;2.42;1.55;;;;;;;;;;5059054;28;20044;-74
2022/07/23 13:33:57;;;;;;;2.85;1.30;;;;;;;;;;5092624;28;20357;-68
2022/07/23 13:36:23;;;;;;;1.85;1.25;;;;;;;;;;5096871;28;20043;-70
2022/07/23 13:38:50;;;;;;;3.15;1.20;;;;;;;;;;5090717;28;20031;-68
2022/07/23 13:41:17;;;;;;;2.80;1.33;;;;;;;;;;5095131;28;20480;-69
2022/07/23 13:43:43;;;;;;;2.92;1.60;;;;;;;;;;5098920;28;20032;-69
2022/07/23 13:46:09;;;;;;;3.00;1.58;;;;;;;;;;5086213;28;20096;-69
2022/07/23 13:48:35;;;;;;;3.22;1.30;;;;;;;;;;5096627;28;20548;-69
2022/07/23 13:51:01;;;;;;;4.20;1.83;;;;;;;;;;5098709;28;20032;-70
2022/07/23 13:53:27;;;;;;;1.73;1.10;;;;;;;;;;5095756;28;20519;-69
2022/07/23 13:55:54;;;;;;;2.38;1.30;;;;;;;;;;5103449;28;20035;-69
2022/07/23 13:58:20;;;;;;;1.98;1.20;;;;;;;;;;5101732;28;20556;-69
2022/07/23 14:00:48;;;;;;;1.60;1.10;;;;;;;;;;5083108;28;20527;-69
2022/07/23 14:03:14;;;;;;;2.58;1.00;;;;;;;;;;5091641;28;20075;-69
2022/07/23 14:05:41;;;;;;;2.13;1.00;;;;;;;;;;5096342;28;20032;-68
2022/07/23 14:08:07;;;;;;;2.30;1.25;;;;;;;;;;5086674;28;20444;-72
2022/07/23 14:10:34;;;;;;;2.03;1.05;;;;;;;;;;5079826;28;20097;-71
2022/07/23 14:13:00;;;;;;;2.22;1.30;;;;;;;;;;5084160;28;20036;-72
2022/07/23 14:15:27;;;;;;;2.33;1.48;;;;;;;;;;5093832;28;20036;-73
2022/07/23 14:17:53;;;;;;;4.75;1.40;;;;;;;;;;5083649;28;20040;-73
2022/07/23 14:20:19;;;;;;;1.90;1.00;;;;;;;;;;5095347;28;20052;-73
2022/07/23 14:22:46;;;;;;;2.40;1.30;;;;;;;;;;5076731;28;20047;-73
2022/07/23 14:25:12;;;;;;;3.33;1.20;;;;;;;;;;5045746;28;20073;-72
2022/07/23 14:27:39;;;;;;;3.22;1.20;;;;;;;;;;5083981;28;20135;-73
2022/07/23 14:30:09;;;;;;;3.10;1.15;;;;;;;;;;5098821;28;20126;-72
2022/07/23 14:32:35;;;;;;;2.63;1.20;;;;;;;;;;5093914;28;20181;-73
2022/07/23 14:35:01;;;;;;;4.57;1.50;;;;;;;;;;5059963;28;20066;-74
2022/07/23 14:37:27;;;;;;;3.25;1.13;;;;;;;;;;5076956;28;20523;-74
2022/07/23 14:39:54;;;;;;;1.85;1.10;;;;;;;;;;5095421;28;20047;-73
2022/07/23 14:42:20;;;;;;;3.97;1.30;;;;;;;;;;5077120;28;20070;-72
2022/07/23 14:44:46;;;;;;;2.60;1.30;;;;;;;;;;5076412;28;20300;-73
2022/07/23 14:47:12;;;;;;;3.08;1.40;;;;;;;;;;5076559;28;20036;-73